Petange, Luxembourg
Current Conditions -  °F | °C
As of 2:50 PM on Friday 24 Oct 2014 (Local Time) from ELLX Reporting Station
Clear Clear  
Wind Chill: 52°   Ceiling: Unl
Heat Index: 52°   Visibility: 6mi
Dew Point: 41°   Wind: 3mph
Humidity: 67%   Direction: NA
Pressure: 30.12"   Gusts: NA
Location:  49.56°N, 5.88°E
Report Text: ELLX 241250Z VRB03KT CAVOK 11/05 Q1020 NOSIG
Loading
Personal Weather Stations






























Interactive Weather Map New forecast layout! Learn more

10-Day Weather Forecast

Advertisements
Track Severe Weather on mobile